KMZH

Details ICAO KMZH
Name MOOSE LAKE CARLTON CO
Region United States
Timezone America/Chicago (UTC-6.0)
Plans Departing 1
Arriving 1
Stats Elevation 1,076 ft / 328 m (AMSL)
Location 46.418599° -92.804779°
Runways 1
Magnetic Variation 0.346° W
Sunrise 2017-12-15 13:49:35 UTC / 2017-12-15 07:49:35 Local
Sunset 2017-12-15 22:26:11 UTC / 2017-12-15 16:26:11 Local
Advertisement - Login to hide

Runways

ID Width Length Bearing (true) Bearing (mag) Surface Threshold Offset Overrun Length
04 75 ft / 23 m 3,199 ft / 975 m 40.30° 40.65° Asphalt 0 ft / 0 m 0 ft / 0 m
22 75 ft / 23 m 3,199 ft / 975 m 220.30° 220.65° Asphalt 0 ft / 0 m 0 ft / 0 m

Map

Weather


0- 5 10 15 20 25 30 35+ Temperature / ° C

Clouds and Precipitation
Forecast for 2017-12-15 06:00 UTC. Updated an hour ago

Ground ~20,000 ft ~40,000 ft Winds

METAR

KMZH 150615Z AUTO 30005KT 10SM SCT020 SCT031 OVC044 M09/M13 A2989 RMK AO2

TAF

Not found

Frequencies

Unicom 122.90 MHz CTAF
Approach 125.45 MHz DULUTH APP/DEP
Warning: Do not use this data for real-world aviation or navigation. No guarantee of current accuracy is given.